Time,TemperatureF,DewpointF,PressureIn,WindDirection,WindDirectionDegrees,WindSpeedMPH,WindSpeedGustMPH,Humidity,HourlyPrecipIn,Conditions,Clouds,dailyrainin,SoftwareType,DateUTC
2013-09-11 00:03:00,65.0,63.0,-100.00,West,260,6.0,7.0,93,-99.99,,,-99.99,,2013-09-11 05:03:00,
2013-09-11 00:43:00,66.0,62.0,-100.00,West,260,7.0,8.0,88,-99.99,,,-99.99,,2013-09-11 05:43:00,
2013-09-11 00:53:00,66.0,62.0,-100.00,West,260,7.0,8.0,88,-99.99,,,-99.99,,2013-09-11 05:53:00,
2013-09-11 01:02:00,66.0,62.0,-100.00,West,260,7.0,8.0,88,-99.99,,,-99.99,,2013-09-11 06:02:00,
2013-09-11 01:10:00,66.0,63.0,-100.00,WNW,290,8.0,9.0,89,-99.99,,,-99.99,,2013-09-11 06:10:00,
2013-09-11 01:42:00,66.0,63.0,-100.00,WNW,290,8.0,9.0,89,-99.99,,,-99.99,,2013-09-11 06:42:00,
2013-09-11 01:52:00,66.0,63.0,-100.00,WNW,290,8.0,9.0,89,-99.99,,,-99.99,,2013-09-11 06:52:00,
2013-09-11 02:01:00,66.0,63.0,-100.00,WNW,290,8.0,9.0,89,-99.99,,,-99.99,,2013-09-11 07:01:00,
2013-09-11 02:42:00,64.0,63.0,-100.00,NW,310,7.0,9.0,96,-99.99,,,-99.99,,2013-09-11 07:42:00,
2013-09-11 02:53:00,64.0,63.0,-100.00,NW,310,7.0,9.0,96,-99.99,,,-99.99,,2013-09-11 07:53:00,
2013-09-11 03:02:00,64.0,63.0,-100.00,NW,310,7.0,9.0,96,-99.99,,,-99.99,,2013-09-11 08:02:00,
2013-09-11 03:42:00,62.0,62.0,-100.00,WNW,295,5.0,6.0,99,-99.99,,,-99.99,,2013-09-11 08:42:00,
2013-09-11 03:52:00,62.0,62.0,-100.00,WNW,295,5.0,6.0,99,-99.99,,,-99.99,,2013-09-11 08:52:00,
2013-09-11 04:02:00,62.0,62.0,-100.00,WNW,295,5.0,6.0,99,-99.99,,,-99.99,,2013-09-11 09:02:00,
2013-09-11 04:43:00,59.0,59.0,-100.00,WNW,285,3.0,3.0,99,-99.99,,,-99.99,,2013-09-11 09:43:00,
2013-09-11 04:53:00,59.0,59.0,-100.00,WNW,285,3.0,3.0,99,-99.99,,,-99.99,,2013-09-11 09:53:00,
2013-09-11 05:03:00,59.0,59.0,-100.00,WNW,285,3.0,3.0,99,-99.99,,,-99.99,,2013-09-11 10:03:00,
2013-09-11 05:43:00,58.0,57.0,-100.00,West,275,3.0,4.0,99,-99.99,,,-99.99,,2013-09-11 10:43:00,
2013-09-11 05:53:00,58.0,57.0,-100.00,West,275,3.0,4.0,99,-99.99,,,-99.99,,2013-09-11 10:53:00,
2013-09-11 06:03:00,58.0,57.0,-100.00,West,275,3.0,4.0,99,-99.99,,,-99.99,,2013-09-11 11:03:00,
2013-09-11 06:42:00,57.0,57.0,-100.00,West,265,4.0,5.0,99,-99.99,,,-99.99,,2013-09-11 11:42:00,
2013-09-11 06:52:00,57.0,57.0,-100.00,West,265,4.0,5.0,99,-99.99,,,-99.99,,2013-09-11 11:52:00,
2013-09-11 07:01:00,57.0,57.0,-100.00,West,265,4.0,5.0,99,-99.99,,,-99.99,,2013-09-11 12:01:00,
2013-09-11 07:10:00,57.0,57.0,-100.00,WSW,245,4.0,4.0,99,-99.99,,,-99.99,,2013-09-11 12:10:00,
2013-09-11 07:42:00,57.0,57.0,-100.00,WSW,245,4.0,4.0,99,-99.99,,,-99.99,,2013-09-11 12:42:00,
2013-09-11 07:52:00,57.0,57.0,-100.00,WSW,245,4.0,4.0,99,-99.99,,,-99.99,,2013-09-11 12:52:00,
2013-09-11 08:02:00,57.0,57.0,-100.00,WSW,245,4.0,4.0,99,-99.99,,,-99.99,,2013-09-11 13:02:00,
2013-09-11 08:42:00,58.0,58.0,-100.00,WSW,245,3.0,4.0,99,-99.99,,,-99.99,,2013-09-11 13:42:00,
2013-09-11 08:52:00,58.0,58.0,-100.00,WSW,245,3.0,4.0,99,-99.99,,,-99.99,,2013-09-11 13:52:00,
2013-09-11 09:02:00,58.0,58.0,-100.00,WSW,245,3.0,4.0,99,-99.99,,,-99.99,,2013-09-11 14:02:00,
2013-09-11 09:42:00,63.0,63.0,-100.00,WSW,245,2.0,3.0,99,-99.99,,,-99.99,,2013-09-11 14:42:00,
2013-09-11 09:52:00,63.0,63.0,-100.00,WSW,245,2.0,3.0,99,-99.99,,,-99.99,,2013-09-11 14:52:00,
2013-09-11 10:02:00,63.0,63.0,-100.00,WSW,245,2.0,3.0,99,-99.99,,,-99.99,,2013-09-11 15:02:00,
2013-09-11 10:11:00,71.0,62.0,-100.00,West,260,9.0,11.0,75,-99.99,,,-99.99,,2013-09-11 15:11:00,
2013-09-11 10:43:00,71.0,62.0,-100.00,West,260,9.0,11.0,75,-99.99,,,-99.99,,2013-09-11 15:43:00,
2013-09-11 10:54:00,71.0,62.0,-100.00,West,260,9.0,11.0,75,-99.99,,,-99.99,,2013-09-11 15:54:00,
2013-09-11 11:03:00,71.0,62.0,-100.00,West,260,9.0,11.0,75,-99.99,,,-99.99,,2013-09-11 16:03:00,
2013-09-11 11:10:00,74.0,58.0,-100.00,West,280,12.0,16.0,59,-99.99,,,-99.99,,2013-09-11 16:10:00,
2013-09-11 11:43:00,74.0,58.0,-100.00,West,280,12.0,16.0,59,-99.99,,,-99.99,,2013-09-11 16:43:00,
2013-09-11 11:53:00,74.0,58.0,-100.00,West,280,12.0,16.0,59,-99.99,,,-99.99,,2013-09-11 16:53:00,
2013-09-11 12:03:00,74.0,58.0,-100.00,West,280,12.0,16.0,59,-99.99,,,-99.99,,2013-09-11 17:03:00,
2013-09-11 12:10:00,75.0,54.0,-100.00,NW,305,17.0,22.0,47,-99.99,,,-99.99,,2013-09-11 17:10:00,
2013-09-11 12:43:00,75.0,54.0,-100.00,NW,305,17.0,22.0,47,-99.99,,,-99.99,,2013-09-11 17:43:00,
2013-09-11 12:52:00,75.0,54.0,-100.00,NW,305,17.0,22.0,47,-99.99,,,-99.99,,2013-09-11 17:52:00,
2013-09-11 13:02:00,75.0,54.0,-100.00,NW,305,17.0,22.0,47,-99.99,,,-99.99,,2013-09-11 18:02:00,
2013-09-11 13:10:00,76.0,50.0,-100.00,NNW,335,20.0,24.0,40,-99.99,,,-99.99,,2013-09-11 18:10:00,
2013-09-11 13:42:00,76.0,50.0,-100.00,NNW,335,20.0,24.0,40,-99.99,,,-99.99,,2013-09-11 18:42:00,
2013-09-11 13:52:00,76.0,50.0,-100.00,NNW,335,20.0,24.0,40,-99.99,,,-99.99,,2013-09-11 18:52:00,
2013-09-11 14:01:00,76.0,50.0,-100.00,NNW,335,20.0,24.0,40,-99.99,,,-99.99,,2013-09-11 19:01:00,
2013-09-11 15:42:00,77.0,48.0,-100.00,NW,310,14.0,20.0,36,-99.99,,,-99.99,,2013-09-11 20:42:00,
2013-09-11 15:52:00,77.0,48.0,-100.00,NW,310,14.0,20.0,36,-99.99,,,-99.99,,2013-09-11 20:52:00,
2013-09-11 16:02:00,77.0,48.0,-100.00,NW,310,14.0,20.0,36,-99.99,,,-99.99,,2013-09-11 21:02:00,
2013-09-11 16:10:00,76.0,47.0,-100.00,West,280,17.0,24.0,35,-99.99,,,-99.99,,2013-09-11 21:10:00,
2013-09-11 16:44:00,76.0,47.0,-100.00,West,280,17.0,24.0,35,-99.99,,,-99.99,,2013-09-11 21:44:00,
2013-09-11 16:54:00,76.0,47.0,-100.00,West,280,17.0,24.0,35,-99.99,,,-99.99,,2013-09-11 21:54:00,
2013-09-11 17:04:00,76.0,47.0,-100.00,West,280,17.0,24.0,35,-99.99,,,-99.99,,2013-09-11 22:04:00,
2013-09-11 17:43:00,76.0,47.0,-100.00,West,280,15.0,20.0,36,-99.99,,,-99.99,,2013-09-11 22:43:00,
2013-09-11 17:54:00,76.0,47.0,-100.00,West,280,15.0,20.0,36,-99.99,,,-99.99,,2013-09-11 22:54:00,
2013-09-11 18:03:00,76.0,47.0,-100.00,West,280,15.0,20.0,36,-99.99,,,-99.99,,2013-09-11 23:03:00,
2013-09-11 18:10:00,72.0,46.0,-100.00,North,0,7.0,10.0,40,-99.99,,,-99.99,,2013-09-11 23:10:00,
2013-09-11 18:42:00,72.0,46.0,-100.00,North,0,7.0,10.0,40,-99.99,,,-99.99,,2013-09-11 23:42:00,
2013-09-11 18:53:00,72.0,46.0,-100.00,North,0,7.0,10.0,40,-99.99,,,-99.99,,2013-09-11 23:53:00,
2013-09-11 19:01:00,72.0,46.0,-100.00,North,0,7.0,10.0,40,-99.99,,,-99.99,,2013-09-12 00:01:00,
2013-09-11 20:10:00,66.0,49.0,-100.00,West,280,4.0,5.0,55,-99.99,,,-99.99,,2013-09-12 01:10:00,
2013-09-11 20:42:00,66.0,49.0,-100.00,West,280,4.0,5.0,55,-99.99,,,-99.99,,2013-09-12 01:42:00,
2013-09-11 20:52:00,66.0,49.0,-100.00,West,280,4.0,5.0,55,-99.99,,,-99.99,,2013-09-12 01:52:00,
2013-09-11 21:03:00,66.0,49.0,-100.00,West,280,4.0,5.0,55,-99.99,,,-99.99,,2013-09-12 02:03:00,
2013-09-11 21:11:00,62.0,50.0,-100.00,West,280,3.0,3.0,65,-99.99,,,-99.99,,2013-09-12 02:11:00,
2013-09-11 21:52:00,62.0,50.0,-100.00,West,280,3.0,3.0,65,-99.99,,,-99.99,,2013-09-12 02:52:00,
2013-09-11 22:02:00,62.0,50.0,-100.00,West,280,3.0,3.0,65,-99.99,,,-99.99,,2013-09-12 03:02:00,
2013-09-11 22:10:00,59.0,54.0,-100.00,WNW,295,4.0,4.0,82,-99.99,,,-99.99,,2013-09-12 03:10:00,
2013-09-11 22:45:00,59.0,54.0,-100.00,WNW,295,4.0,4.0,82,-99.99,,,-99.99,,2013-09-12 03:45:00,
2013-09-11 22:55:00,59.0,54.0,-100.00,WNW,295,4.0,4.0,82,-99.99,,,-99.99,,2013-09-12 03:55:00,
2013-09-11 23:05:00,59.0,54.0,-100.00,WNW,295,4.0,4.0,82,-99.99,,,-99.99,,2013-09-12 04:05:00,
2013-09-11 23:10:00,56.0,55.0,-100.00,WNW,300,3.0,4.0,94,-99.99,,,-99.99,,2013-09-12 04:10:00,
2013-09-11 23:44:00,56.0,55.0,-100.00,WNW,300,3.0,4.0,94,-99.99,,,-99.99,,2013-09-12 04:44:00,
2013-09-11 23:54:00,56.0,55.0,-100.00,WNW,300,3.0,4.0,94,-99.99,,,-99.99,,2013-09-12 04:54:00,